createdAt,value
2017-07-21T00:00:21.652Z,16.2
2017-07-21T00:01:29.433Z,16.2
2017-07-21T00:02:36.911Z,16.2
2017-07-21T00:03:44.396Z,16.2
2017-07-21T00:04:51.878Z,16.2
2017-07-21T00:05:59.032Z,16.2
2017-07-21T00:07:06.615Z,16.2
2017-07-21T00:08:14.108Z,16.1
2017-07-21T00:09:21.586Z,16.1
2017-07-21T00:10:29.062Z,16.1
2017-07-21T00:11:36.553Z,16.1
2017-07-21T00:12:44.133Z,16.1
2017-07-21T00:13:51.608Z,16.1
2017-07-21T00:14:59.105Z,16.1
2017-07-21T00:16:06.582Z,16.1
2017-07-21T00:17:14.060Z,16.1
2017-07-21T00:18:22.140Z,16.1
2017-07-21T00:19:29.620Z,16.1
2017-07-21T00:20:37.098Z,16.1
2017-07-21T00:21:44.585Z,16.1
2017-07-21T00:22:52.059Z,16.1
2017-07-21T00:23:59.837Z,16.1
2017-07-21T00:25:07.340Z,16.1
2017-07-21T00:26:14.818Z,16.1
2017-07-21T00:27:22.297Z,16.1
2017-07-21T00:28:29.447Z,16.1
2017-07-21T00:29:37.026Z,16.1
2017-07-21T00:30:44.202Z,16.1
2017-07-21T00:31:51.677Z,16.1
2017-07-21T00:32:59.155Z,16.1
2017-07-21T00:34:06.630Z,16.1
2017-07-21T00:35:14.406Z,16
2017-07-21T00:36:21.891Z,16
2017-07-21T00:37:29.371Z,16
2017-07-21T00:38:36.849Z,16
2017-07-21T00:39:44.329Z,16
2017-07-21T00:40:51.905Z,16
2017-07-21T00:41:59.383Z,15.9
2017-07-21T00:43:06.861Z,15.9
2017-07-21T00:44:14.341Z,15.9
2017-07-21T00:45:21.496Z,15.9
2017-07-21T00:46:29.226Z,15.9
2017-07-21T00:47:36.707Z,15.8
2017-07-21T00:48:44.178Z,15.8
2017-07-21T00:49:51.657Z,15.8
2017-07-21T00:50:59.141Z,15.8
2017-07-21T00:52:06.923Z,15.8
2017-07-21T00:53:14.414Z,15.8
2017-07-21T00:54:21.896Z,15.8
2017-07-21T00:55:29.039Z,15.8
2017-07-21T00:56:36.518Z,15.7
2017-07-21T00:57:44.303Z,15.7
2017-07-21T00:58:51.783Z,15.7
2017-07-21T00:59:58.935Z,15.7
2017-07-21T01:01:06.411Z,15.7
2017-07-21T01:02:13.892Z,15.7
2017-07-21T01:03:21.676Z,15.7
2017-07-21T01:04:29.164Z,15.7
2017-07-21T01:05:36.634Z,15.7
2017-07-21T01:06:43.786Z,15.7
2017-07-21T01:07:51.269Z,15.7
2017-07-21T01:08:58.851Z,15.7
2017-07-21T01:10:06.401Z,15.6
2017-07-21T01:11:13.878Z,15.6
2017-07-21T01:12:21.360Z,15.6
2017-07-21T01:13:28.840Z,15.6
2017-07-21T01:14:36.566Z,15.6
2017-07-21T01:15:43.382Z,15.5
2017-07-21T01:16:50.864Z,15.5
2017-07-21T01:17:58.352Z,15.5
2017-07-21T01:19:05.856Z,15.5
2017-07-21T01:20:13.101Z,15.5
2017-07-21T01:21:20.578Z,15.5
2017-07-21T01:22:27.725Z,15.5
2017-07-21T01:23:35.209Z,15.5
2017-07-21T01:24:42.684Z,15.5
2017-07-21T01:25:50.269Z,15.5
2017-07-21T01:26:57.749Z,15.5
2017-07-21T01:28:05.247Z,15.5
2017-07-21T01:29:12.736Z,15.4
2017-07-21T01:30:19.882Z,15.4
2017-07-21T01:31:27.658Z,15.4
2017-07-21T01:32:35.134Z,15.4
2017-07-21T01:33:42.614Z,15.4
2017-07-21T01:34:50.120Z,15.4
2017-07-21T01:35:57.609Z,15.3
2017-07-21T01:37:05.187Z,15.3
2017-07-21T01:38:12.672Z,15.3
2017-07-21T01:39:20.156Z,15.3
2017-07-21T01:40:27.637Z,15.3
2017-07-21T01:41:35.113Z,15.3
2017-07-21T01:42:42.870Z,15.3
2017-07-21T01:43:50.348Z,15.3
2017-07-21T01:44:57.496Z,15.3
2017-07-21T01:46:04.972Z,15.3
2017-07-21T01:47:12.450Z,15.3
2017-07-21T01:48:20.227Z,15.3
2017-07-21T01:49:27.703Z,15.3
2017-07-21T01:50:35.179Z,15.3
2017-07-21T01:51:42.658Z,15.2
2017-07-21T01:52:50.146Z,15.3
2017-07-21T01:53:57.729Z,15.3
2017-07-21T01:55:05.213Z,15.3
2017-07-21T01:56:12.701Z,15.3
2017-07-21T01:57:20.180Z,15.3
2017-07-21T01:58:27.659Z,15.2
2017-07-21T01:59:35.055Z,15.2
2017-07-21T02:00:42.199Z,15.2
2017-07-21T02:01:49.680Z,15.2
2017-07-21T02:02:57.166Z,15.2
2017-07-21T02:04:04.638Z,15.2
2017-07-21T02:05:12.423Z,15.2
2017-07-21T02:06:19.902Z,15.2
2017-07-21T02:07:27.047Z,15.2
2017-07-21T02:08:34.525Z,15.1
2017-07-21T02:09:41.999Z,15.2
2017-07-21T02:10:49.582Z,15.2
2017-07-21T02:11:57.059Z,15.2
2017-07-21T02:13:04.214Z,15.2
2017-07-21T02:14:11.689Z,15.2
2017-07-21T02:15:19.171Z,15.2
2017-07-21T02:16:26.896Z,15.2
2017-07-21T02:17:34.373Z,15.2
2017-07-21T02:18:41.851Z,15.2
2017-07-21T02:19:49.004Z,15.2
2017-07-21T02:20:56.479Z,15.2
2017-07-21T02:22:04.254Z,15.2
2017-07-21T02:23:11.731Z,15.2
2017-07-21T02:24:19.212Z,15.2
2017-07-21T02:25:26.694Z,15.2
2017-07-21T02:26:34.178Z,15.2
2017-07-21T02:27:41.956Z,15.1
2017-07-21T02:28:49.431Z,15.1
2017-07-21T02:29:56.912Z,15.1
2017-07-21T02:31:04.397Z,15.1
2017-07-21T02:32:11.549Z,15.1
2017-07-21T02:33:19.275Z,15.1
2017-07-21T02:34:26.753Z,15.1
2017-07-21T02:35:34.231Z,15.2
2017-07-21T02:36:41.708Z,15.1
2017-07-21T02:37:49.179Z,15.2
2017-07-21T02:38:56.962Z,15.2
2017-07-21T02:40:04.439Z,15.2
2017-07-21T02:41:12.398Z,15.2
2017-07-21T02:42:19.878Z,15.1
2017-07-21T02:43:27.358Z,15.2
2017-07-21T02:44:34.760Z,15.2
2017-07-21T02:45:41.912Z,15.2
2017-07-21T02:46:49.407Z,15.2
2017-07-21T02:47:56.878Z,15.2
2017-07-21T02:49:04.368Z,15.2
2017-07-21T02:50:12.098Z,15.2
2017-07-21T02:51:19.583Z,15.2
2017-07-21T02:52:27.054Z,15.2
2017-07-21T02:53:34.537Z,15.3
2017-07-21T02:54:42.033Z,15.3
2017-07-21T02:55:49.619Z,15.3
2017-07-21T02:56:57.101Z,15.3
2017-07-21T02:58:04.581Z,15.3
2017-07-21T02:59:12.058Z,15.3
2017-07-21T03:00:19.207Z,15.3
2017-07-21T03:01:26.990Z,15.3
2017-07-21T03:02:34.491Z,15.3
2017-07-21T03:03:41.644Z,15.3
2017-07-21T03:04:49.120Z,15.3
2017-07-21T03:05:56.606Z,15.4
2017-07-21T03:07:04.381Z,15.4
2017-07-21T03:08:11.530Z,15.4
2017-07-21T03:09:19.008Z,15.4
2017-07-21T03:10:26.170Z,15.4
2017-07-21T03:11:33.645Z,15.4
2017-07-21T03:12:41.382Z,15.5
2017-07-21T03:13:48.523Z,15.5
2017-07-21T03:14:56.004Z,15.5
2017-07-21T03:16:04.698Z,15.5
2017-07-21T03:17:12.080Z,15.5
2017-07-21T03:18:19.664Z,15.5
2017-07-21T03:19:27.147Z,15.5
2017-07-21T03:20:34.302Z,15.5
2017-07-21T03:21:41.782Z,15.5
2017-07-21T03:22:48.931Z,15.5
2017-07-21T03:23:56.707Z,15.5
2017-07-21T03:25:04.189Z,15.6
2017-07-21T03:26:11.664Z,15.6
2017-07-21T03:27:19.144Z,15.6
2017-07-21T03:28:26.629Z,15.6
2017-07-21T03:29:34.213Z,15.6
2017-07-21T03:30:41.693Z,15.7
2017-07-21T03:31:49.164Z,15.7
2017-07-21T03:32:56.636Z,15.6
2017-07-21T03:34:04.118Z,15.7
2017-07-21T03:35:11.900Z,15.7
2017-07-21T03:36:19.381Z,15.7
2017-07-21T03:37:26.856Z,15.7
2017-07-21T03:38:34.002Z,15.7
2017-07-21T03:39:41.491Z,15.7
2017-07-21T03:40:48.984Z,15.8
2017-07-21T03:41:56.467Z,15.8
2017-07-21T03:43:03.615Z,15.8
2017-07-21T03:44:11.093Z,15.8
2017-07-21T03:45:18.575Z,15.7
2017-07-21T03:46:26.057Z,15.7
2017-07-21T03:47:33.553Z,15.8
2017-07-21T03:48:41.032Z,15.8
2017-07-21T03:49:48.514Z,15.8
2017-07-21T03:50:56.299Z,15.8
2017-07-21T03:52:03.785Z,15.8
2017-07-21T03:53:11.261Z,15.7
2017-07-21T03:54:18.746Z,15.8
2017-07-21T03:55:25.898Z,15.8
2017-07-21T03:56:33.834Z,15.7
2017-07-21T03:57:41.320Z,15.7
2017-07-21T03:58:48.795Z,15.7
2017-07-21T03:59:56.272Z,15.7
2017-07-21T04:01:03.424Z,15.7
2017-07-21T04:02:11.225Z,15.7
2017-07-21T04:03:18.702Z,15.7
2017-07-21T04:04:25.855Z,15.7
2017-07-21T04:05:34.552Z,15.7
2017-07-21T04:06:42.030Z,15.7
2017-07-21T04:07:49.516Z,15.7
2017-07-21T04:08:56.668Z,15.7
2017-07-21T04:10:03.829Z,15.7
2017-07-21T04:11:11.305Z,15.7
2017-07-21T04:12:18.786Z,15.7
2017-07-21T04:13:26.362Z,15.8
2017-07-21T04:14:33.839Z,15.8
2017-07-21T04:15:41.325Z,15.8
2017-07-21T04:16:48.803Z,15.9
2017-07-21T04:17:56.280Z,15.9
2017-07-21T04:19:04.061Z,15.9
2017-07-21T04:20:11.538Z,15.9
2017-07-21T04:21:18.689Z,15.9
2017-07-21T04:22:26.178Z,15.9
2017-07-21T04:23:33.656Z,16
2017-07-21T04:24:41.487Z,16
2017-07-21T04:25:48.647Z,16
2017-07-21T04:26:56.141Z,16
2017-07-21T04:28:03.615Z,16
2017-07-21T04:29:11.097Z,16.1
2017-07-21T04:30:18.520Z,16.1
2017-07-21T04:31:26.025Z,16.1
2017-07-21T04:32:33.513Z,16.2
2017-07-21T04:33:40.987Z,16.2
2017-07-21T04:34:48.469Z,16.3
2017-07-21T04:35:56.247Z,16.3
2017-07-21T04:37:03.731Z,16.4
2017-07-21T04:38:11.212Z,16.4
2017-07-21T04:39:18.700Z,16.4
2017-07-21T04:40:26.175Z,16.4
2017-07-21T04:41:33.951Z,16.4
2017-07-21T04:42:41.431Z,16.4
2017-07-21T04:43:48.910Z,16.5
2017-07-21T04:44:56.391Z,16.5
2017-07-21T04:46:03.878Z,16.5
2017-07-21T04:47:11.707Z,16.6
2017-07-21T04:48:19.185Z,16.7
2017-07-21T04:49:26.660Z,16.7
2017-07-21T04:50:34.138Z,16.7
2017-07-21T04:51:41.619Z,16.8
2017-07-21T04:52:49.198Z,16.9
2017-07-21T04:53:56.692Z,16.9
2017-07-21T04:55:04.174Z,16.9
2017-07-21T04:56:11.655Z,16.9
2017-07-21T04:57:19.140Z,17
2017-07-21T04:58:26.543Z,17
2017-07-21T04:59:34.026Z,17
2017-07-21T05:00:41.507Z,17.1
2017-07-21T05:01:48.991Z,17.2
2017-07-21T05:02:56.480Z,17.2
2017-07-21T05:04:04.204Z,17.2
2017-07-21T05:05:11.682Z,17.3
2017-07-21T05:06:19.165Z,17.3
2017-07-21T05:07:26.644Z,17.4
2017-07-21T05:08:33.794Z,17.4
2017-07-21T05:09:40.945Z,17.4
2017-07-21T05:10:48.099Z,17.4
2017-07-21T05:11:55.617Z,17.4
2017-07-21T05:13:03.098Z,17.5
2017-07-21T05:14:10.579Z,17.5
2017-07-21T05:15:18.161Z,17.4
2017-07-21T05:16:25.646Z,17.4
2017-07-21T05:17:33.126Z,17.5
2017-07-21T05:18:40.612Z,17.5
2017-07-21T05:19:48.090Z,17.5
2017-07-21T05:20:55.874Z,17.5
2017-07-21T05:22:03.376Z,17.5
2017-07-21T05:23:10.856Z,17.5
2017-07-21T05:24:18.335Z,17.5
2017-07-21T05:25:25.815Z,17.5
2017-07-21T05:26:33.297Z,17.6
2017-07-21T05:27:40.446Z,17.6
2017-07-21T05:28:47.931Z,17.6
2017-07-21T05:29:55.408Z,17.6
2017-07-21T05:31:02.885Z,17.7
2017-07-21T05:32:10.471Z,17.8
2017-07-21T05:33:17.627Z,17.8
2017-07-21T05:34:25.106Z,17.9
2017-07-21T05:35:32.584Z,17.9
2017-07-21T05:36:40.078Z,18
2017-07-21T05:37:47.856Z,18
2017-07-21T05:38:55.328Z,18.1
2017-07-21T05:40:02.812Z,18.1
2017-07-21T05:41:10.294Z,18
2017-07-21T05:42:17.775Z,18
2017-07-21T05:43:25.362Z,18
2017-07-21T05:44:32.514Z,18.1
2017-07-21T05:45:39.995Z,18.1
2017-07-21T05:46:47.475Z,18.1
2017-07-21T05:47:54.957Z,18.1
2017-07-21T05:49:02.742Z,18.2
2017-07-21T05:50:09.906Z,18.3
2017-07-21T05:51:17.388Z,18.4
2017-07-21T05:52:24.869Z,18.4
2017-07-21T05:53:32.345Z,18.5
2017-07-21T05:54:40.172Z,18.6
2017-07-21T05:55:47.656Z,18.6
2017-07-21T05:56:55.155Z,18.6
2017-07-21T05:58:02.634Z,18.6
2017-07-21T05:59:09.785Z,18.6
2017-07-21T06:00:17.615Z,18.6
2017-07-21T06:01:25.099Z,18.6
2017-07-21T06:02:32.610Z,18.7
2017-07-21T06:03:40.091Z,18.6
2017-07-21T06:04:47.574Z,18.6
2017-07-21T06:05:55.363Z,18.6
2017-07-21T06:07:02.845Z,18.6
2017-07-21T06:08:10.002Z,18.7
2017-07-21T06:09:17.484Z,18.7
2017-07-21T06:10:24.971Z,18.8
2017-07-21T06:11:32.449Z,18.8
2017-07-21T06:12:39.927Z,19
2017-07-21T06:13:47.409Z,19.1
2017-07-21T06:14:54.890Z,19.3
2017-07-21T06:16:02.474Z,19.5
2017-07-21T06:17:09.954Z,19.8
2017-07-21T06:18:17.440Z,20.2
2017-07-21T06:19:24.924Z,20.5
2017-07-21T06:20:32.416Z,20.8
2017-07-21T06:21:39.998Z,21
2017-07-21T06:22:47.477Z,21.1
2017-07-21T06:23:54.968Z,20.9
2017-07-21T06:25:02.447Z,20.7
2017-07-21T06:26:09.966Z,20.7
2017-07-21T06:27:17.788Z,20.6
2017-07-21T06:28:25.273Z,20.5
2017-07-21T06:29:32.429Z,20.5
2017-07-21T06:30:39.910Z,20.3
2017-07-21T06:31:47.062Z,20.3
2017-07-21T06:32:54.850Z,20.2
2017-07-21T06:34:02.366Z,20.2
2017-07-21T06:35:09.845Z,20.2
2017-07-21T06:36:17.328Z,20.2
2017-07-21T06:37:24.819Z,20.2
2017-07-21T06:38:32.295Z,20.3
2017-07-21T06:39:39.777Z,20.4
2017-07-21T06:40:47.264Z,20.4
2017-07-21T06:41:54.745Z,20.5
2017-07-21T06:43:02.325Z,20.6
2017-07-21T06:44:09.810Z,20.7
2017-07-21T06:45:17.295Z,20.8
2017-07-21T06:46:24.778Z,20.9
2017-07-21T06:47:32.261Z,20.9
2017-07-21T06:48:39.841Z,20.9
2017-07-21T06:49:46.997Z,20.9
2017-07-21T06:50:54.480Z,20.9
2017-07-21T06:52:01.955Z,21
2017-07-21T06:53:09.445Z,21.1
2017-07-21T06:54:17.025Z,21.3
2017-07-21T06:55:24.178Z,21.6
2017-07-21T06:56:31.329Z,21.6
2017-07-21T06:57:38.817Z,21.8
2017-07-21T06:58:46.302Z,22.1
2017-07-21T06:59:54.078Z,22.2
2017-07-21T07:01:01.560Z,22.4
2017-07-21T07:02:08.715Z,22.7
2017-07-21T07:03:16.202Z,22.8
2017-07-21T07:04:23.682Z,22.8
2017-07-21T07:05:31.165Z,22.7
2017-07-21T07:06:38.315Z,22.8
2017-07-21T07:07:45.798Z,22.9
2017-07-21T07:08:53.285Z,22.9
2017-07-21T07:10:00.438Z,22.9
2017-07-21T07:11:08.245Z,22.9
2017-07-21T07:12:15.723Z,22.8
2017-07-21T07:13:23.206Z,22.9
2017-07-21T07:14:30.356Z,22.9
2017-07-21T07:15:38.167Z,22.9
2017-07-21T07:16:45.655Z,22.9
2017-07-21T07:17:53.137Z,22.5
2017-07-21T07:19:00.623Z,22.5
2017-07-21T07:20:08.115Z,22.9
2017-07-21T07:21:15.856Z,23.1
2017-07-21T07:22:23.336Z,22.9
2017-07-21T07:23:30.820Z,22.8
2017-07-21T07:24:38.303Z,22.9
2017-07-21T07:25:45.793Z,23.1
2017-07-21T07:26:53.372Z,23.3
2017-07-21T07:28:00.854Z,23.5
2017-07-21T07:29:08.094Z,23.6
2017-07-21T07:30:15.599Z,23.9
2017-07-21T07:31:22.421Z,24.1
2017-07-21T07:32:29.580Z,24.1
2017-07-21T07:33:37.064Z,24.1
2017-07-21T07:34:44.216Z,24.2
2017-07-21T07:35:51.712Z,24.3
2017-07-21T07:36:59.194Z,24.6
2017-07-21T07:38:06.786Z,24.7
2017-07-21T07:39:14.268Z,24.8
2017-07-21T07:40:21.748Z,24.8
2017-07-21T07:41:29.238Z,24.7
2017-07-21T07:42:36.723Z,24.6
2017-07-21T07:43:44.506Z,24.8
2017-07-21T07:44:52.008Z,24.9
2017-07-21T07:45:59.498Z,24.9
2017-07-21T07:47:06.994Z,25
2017-07-21T07:48:14.487Z,25.1
2017-07-21T07:49:22.075Z,25.2
2017-07-21T07:50:29.226Z,25.4
2017-07-21T07:51:36.721Z,25.6
2017-07-21T07:52:44.230Z,25.6
2017-07-21T07:53:51.726Z,25.3
2017-07-21T07:54:58.984Z,25.3
2017-07-21T07:56:06.466Z,25.4
2017-07-21T07:57:13.624Z,25.6
2017-07-21T07:58:21.140Z,25.8
2017-07-21T07:59:28.623Z,25.7
2017-07-21T08:00:36.409Z,25.7
2017-07-21T08:01:43.557Z,25.8
2017-07-21T08:02:51.043Z,26.2
2017-07-21T08:03:58.535Z,26.4
2017-07-21T08:05:06.020Z,26.2
2017-07-21T08:06:13.801Z,26.2
2017-07-21T08:07:21.286Z,26.2
2017-07-21T08:08:28.780Z,26.1
2017-07-21T08:09:36.272Z,26.1
2017-07-21T08:10:43.758Z,26.3
2017-07-21T08:11:51.238Z,26.4
2017-07-21T08:12:58.731Z,26.5
2017-07-21T08:14:05.894Z,26.7
2017-07-21T08:15:13.374Z,26.8
2017-07-21T08:16:20.877Z,26.7
2017-07-21T08:17:28.615Z,26.7
2017-07-21T08:18:35.786Z,27
2017-07-21T08:19:43.272Z,27.3
2017-07-21T08:20:50.758Z,27.3
2017-07-21T08:21:58.256Z,27.4
2017-07-21T08:23:06.054Z,27.6
2017-07-21T08:24:13.539Z,27.3
2017-07-21T08:25:21.025Z,27.3
2017-07-21T08:26:28.510Z,27.2
2017-07-21T08:27:35.996Z,27
2017-07-21T08:28:43.590Z,27.2
2017-07-21T08:29:51.074Z,27.6
2017-07-21T08:30:58.221Z,27.8
2017-07-21T08:32:05.715Z,28
2017-07-21T08:33:13.200Z,28.1
2017-07-21T08:34:20.364Z,28.1
2017-07-21T08:35:27.843Z,28.1
2017-07-21T08:36:35.323Z,28.3
2017-07-21T08:37:42.819Z,28.3
2017-07-21T08:38:50.560Z,28.5
2017-07-21T08:39:58.045Z,28.6
2017-07-21T08:41:05.536Z,29
2017-07-21T08:42:13.026Z,29.2
2017-07-21T08:43:20.506Z,29.4
2017-07-21T08:44:28.092Z,29.4
2017-07-21T08:45:35.202Z,29.4
2017-07-21T08:46:42.694Z,29.3
2017-07-21T08:47:50.187Z,29.6
2017-07-21T08:48:57.673Z,28.7
2017-07-21T08:50:05.408Z,28.3
2017-07-21T08:51:12.567Z,28
2017-07-21T08:52:20.063Z,28
2017-07-21T08:53:27.216Z,28.1
2017-07-21T08:54:34.375Z,28
2017-07-21T08:55:42.352Z,28.3
2017-07-21T08:56:49.836Z,28.3
2017-07-21T08:57:57.331Z,28.4
2017-07-21T08:59:04.817Z,28.6
2017-07-21T09:00:11.968Z,29
2017-07-21T09:01:19.129Z,29.6
2017-07-21T09:02:26.614Z,29.5
2017-07-21T09:03:34.107Z,29
2017-07-21T09:04:41.263Z,28.7
2017-07-21T09:05:48.675Z,28.7
2017-07-21T09:06:56.168Z,28.6
2017-07-21T09:08:03.339Z,28.7
2017-07-21T09:09:10.821Z,28.7
2017-07-21T09:10:18.308Z,28.7
2017-07-21T09:11:26.094Z,28.7
2017-07-21T09:12:33.589Z,28.9
2017-07-21T09:13:41.072Z,28.9
2017-07-21T09:14:48.561Z,28.4
2017-07-21T09:15:55.729Z,28.2
2017-07-21T09:17:03.325Z,28.6
2017-07-21T09:18:10.813Z,28.7
2017-07-21T09:19:18.294Z,28.8
2017-07-21T09:20:25.453Z,29
2017-07-21T09:21:32.948Z,29.1
2017-07-21T09:22:40.735Z,28.8
2017-07-21T09:23:48.243Z,28.8
2017-07-21T09:24:55.731Z,28.6
2017-07-21T09:26:02.563Z,28.3
2017-07-21T09:27:10.053Z,28.3
2017-07-21T09:28:17.215Z,28.6
2017-07-21T09:29:24.705Z,28.7
2017-07-21T09:30:32.191Z,28.8
2017-07-21T09:31:39.355Z,28.9
2017-07-21T09:32:46.515Z,28.8
2017-07-21T09:33:54.318Z,28.6
2017-07-21T09:35:01.803Z,28.5
2017-07-21T09:36:09.289Z,28.7
2017-07-21T09:37:16.786Z,28.4
2017-07-21T09:38:24.274Z,28.2
2017-07-21T09:39:31.868Z,28.2
2017-07-21T09:40:39.360Z,28.3
2017-07-21T09:41:46.859Z,28.3
2017-07-21T09:42:54.577Z,28.4
2017-07-21T09:44:02.072Z,28.5
2017-07-21T09:45:09.807Z,28.6
2017-07-21T09:46:17.298Z,28.6
2017-07-21T09:47:24.461Z,28.6
2017-07-21T09:48:31.955Z,28.7
2017-07-21T09:49:39.441Z,28.9
2017-07-21T09:50:47.233Z,29.2
2017-07-21T09:51:54.395Z,29.5
2017-07-21T09:53:01.888Z,29.7
2017-07-21T09:54:09.379Z,29.9
2017-07-21T09:55:16.877Z,29.8
2017-07-21T09:56:24.467Z,29.4
2017-07-21T09:57:31.959Z,29.5
2017-07-21T09:58:39.444Z,29.6
2017-07-21T09:59:46.936Z,29.8
2017-07-21T10:00:54.426Z,29.9
2017-07-21T10:02:02.167Z,29.7
2017-07-21T10:03:09.326Z,29.6
2017-07-21T10:04:16.485Z,29.4
2017-07-21T10:05:23.646Z,29.1
2017-07-21T10:06:31.141Z,28.9
2017-07-21T10:07:38.629Z,28.6
2017-07-21T10:08:46.120Z,28.6
2017-07-21T10:09:53.609Z,28.6
2017-07-21T10:11:01.099Z,28.5
2017-07-21T10:12:08.588Z,28.5
2017-07-21T10:13:16.379Z,28.4
2017-07-21T10:14:23.859Z,28.6
2017-07-21T10:15:31.346Z,28.2
2017-07-21T10:16:38.501Z,28.4
2017-07-21T10:17:45.992Z,28.2
2017-07-21T10:18:53.579Z,28.5
2017-07-21T10:20:01.068Z,28.6
2017-07-21T10:21:08.234Z,28.5
2017-07-21T10:22:15.414Z,29.1
2017-07-21T10:23:22.909Z,29.8
2017-07-21T10:24:30.701Z,30
2017-07-21T10:25:37.537Z,29.9
2017-07-21T10:26:45.047Z,30
2017-07-21T10:27:52.528Z,30.1
2017-07-21T10:29:00.011Z,30.1
2017-07-21T10:30:07.503Z,30.5
2017-07-21T10:31:15.005Z,30.3
2017-07-21T10:32:22.496Z,30.1
2017-07-21T10:33:29.992Z,30.2
2017-07-21T10:34:37.259Z,30.3
2017-07-21T10:35:44.751Z,29.9
2017-07-21T10:36:52.244Z,29.4
2017-07-21T10:37:59.744Z,28.7
2017-07-21T10:39:06.908Z,28.6
2017-07-21T10:40:14.494Z,29
2017-07-21T10:41:21.985Z,29.3
2017-07-21T10:42:29.481Z,29.7
2017-07-21T10:43:36.976Z,30
2017-07-21T10:44:44.145Z,30.1
2017-07-21T10:45:51.935Z,30.5
2017-07-21T10:46:59.423Z,30.7
2017-07-21T10:48:06.916Z,30.8
2017-07-21T10:49:14.408Z,30.8
2017-07-21T10:50:21.562Z,31.1
2017-07-21T10:51:29.352Z,31.3
2017-07-21T10:52:36.871Z,31.4
2017-07-21T10:53:44.589Z,31
2017-07-21T10:54:52.108Z,30.9
2017-07-21T10:55:59.614Z,31
2017-07-21T10:57:07.110Z,31.3
2017-07-21T10:58:14.599Z,30.9
2017-07-21T10:59:22.082Z,31
2017-07-21T11:00:29.255Z,31.3
2017-07-21T11:01:36.721Z,30.9
2017-07-21T11:02:43.876Z,30.7
2017-07-21T11:03:51.372Z,30.5
2017-07-21T11:04:58.861Z,30.4
2017-07-21T11:06:06.356Z,30.3
2017-07-21T11:07:13.942Z,30.7
2017-07-21T11:08:21.427Z,30.9
2017-07-21T11:09:28.926Z,31.3
2017-07-21T11:10:36.108Z,31.7
2017-07-21T11:11:43.599Z,32.1
2017-07-21T11:12:51.344Z,31.8
2017-07-21T11:13:58.835Z,31.7
2017-07-21T11:15:06.331Z,31.9
2017-07-21T11:16:13.818Z,32
2017-07-21T11:17:21.318Z,31.7
2017-07-21T11:18:28.899Z,31.6
2017-07-21T11:19:36.399Z,31.3
2017-07-21T11:20:43.890Z,31.2
2017-07-21T11:21:51.397Z,31.1
2017-07-21T11:22:58.564Z,31.3
2017-07-21T11:24:06.055Z,32
2017-07-21T11:25:13.222Z,32.3
2017-07-21T11:26:20.723Z,32.5
2017-07-21T11:27:28.214Z,32.6
2017-07-21T11:28:35.706Z,32.3
2017-07-21T11:29:43.302Z,32.1
2017-07-21T11:30:50.128Z,31.7
2017-07-21T11:31:57.627Z,30.8
2017-07-21T11:33:04.786Z,31
2017-07-21T11:34:12.277Z,31.3
2017-07-21T11:35:19.536Z,31.7
2017-07-21T11:36:27.030Z,32
2017-07-21T11:37:34.531Z,32.2
2017-07-21T11:38:42.033Z,32
2017-07-21T11:39:49.185Z,32
2017-07-21T11:40:56.447Z,32.1
2017-07-21T11:42:03.947Z,32.2
2017-07-21T11:43:11.109Z,32.4
2017-07-21T11:44:18.266Z,32.3
2017-07-21T11:45:25.778Z,32
2017-07-21T11:46:33.371Z,31.7
2017-07-21T11:47:40.889Z,31.5
2017-07-21T11:48:48.059Z,31.5
2017-07-21T11:49:55.546Z,31.8
2017-07-21T11:51:03.038Z,32
2017-07-21T11:52:10.790Z,32.3
2017-07-21T11:53:17.950Z,32.3
2017-07-21T11:54:25.446Z,31.9
2017-07-21T11:55:32.944Z,31.5
2017-07-21T11:56:40.438Z,31.6
2017-07-21T11:57:48.186Z,31.9
2017-07-21T11:58:55.348Z,32.4
2017-07-21T12:00:02.844Z,32.8
2017-07-21T12:01:10.346Z,33.2
2017-07-21T12:02:17.855Z,33.4
2017-07-21T12:03:25.344Z,33.7
2017-07-21T12:04:32.838Z,33.8
2017-07-21T12:05:40.359Z,34.1
2017-07-21T12:06:47.855Z,34.2
2017-07-21T12:07:55.349Z,34
2017-07-21T12:09:02.955Z,34
2017-07-21T12:10:10.452Z,33.1
2017-07-21T12:11:17.944Z,32.9
2017-07-21T12:12:25.439Z,33.1
2017-07-21T12:13:32.604Z,33.4
2017-07-21T12:14:40.400Z,33.8
2017-07-21T12:15:47.891Z,34.1
2017-07-21T12:16:55.056Z,34.4
2017-07-21T12:18:02.559Z,34.6
2017-07-21T12:19:10.044Z,34.4
2017-07-21T12:20:17.843Z,34.5
2017-07-21T12:21:25.335Z,34.6
2017-07-21T12:22:32.834Z,34.7
2017-07-21T12:23:40.325Z,34.7
2017-07-21T12:24:48.056Z,34.5
2017-07-21T12:25:55.221Z,34.7
2017-07-21T12:27:02.709Z,34.9
2017-07-21T12:28:10.221Z,34.9
2017-07-21T12:29:17.726Z,34.5
2017-07-21T12:30:25.467Z,34.6
2017-07-21T12:31:32.960Z,34.9
2017-07-21T12:32:40.119Z,34.5
2017-07-21T12:33:47.619Z,34.5
2017-07-21T12:34:54.784Z,34.2
2017-07-21T12:36:02.205Z,34
2017-07-21T12:37:09.697Z,34.5
2017-07-21T12:38:17.198Z,34.8
2017-07-21T12:39:24.702Z,35
2017-07-21T12:40:31.864Z,34.4
2017-07-21T12:41:39.456Z,34.2
2017-07-21T12:42:46.306Z,34.3
2017-07-21T12:43:53.806Z,34.1
2017-07-21T12:45:01.294Z,34.4
2017-07-21T12:46:08.790Z,34.5
2017-07-21T12:47:16.532Z,34.2
2017-07-21T12:48:24.021Z,34
2017-07-21T12:49:31.514Z,33.5
2017-07-21T12:50:39.031Z,33.2
2017-07-21T12:51:46.526Z,33
2017-07-21T12:52:54.018Z,32.7
2017-07-21T12:54:01.509Z,32.5
2017-07-21T12:55:09.000Z,32.5
2017-07-21T12:56:16.498Z,32.6
2017-07-21T12:57:23.997Z,32.5
2017-07-21T12:58:31.589Z,32.4
2017-07-21T12:59:39.083Z,32.4
2017-07-21T13:00:46.581Z,32.4
2017-07-21T13:01:54.078Z,32.5
2017-07-21T13:03:01.576Z,32.7
2017-07-21T13:04:09.325Z,32.5
2017-07-21T13:05:16.825Z,32.6
2017-07-21T13:06:24.327Z,32.9
2017-07-21T13:07:31.818Z,33.1
2017-07-21T13:08:39.317Z,32.9
2017-07-21T13:09:46.820Z,32.7
2017-07-21T13:10:53.979Z,32.2
2017-07-21T13:12:01.476Z,31.9
2017-07-21T13:13:08.961Z,31.9
2017-07-21T13:14:16.453Z,32
2017-07-21T13:15:23.871Z,32.2
2017-07-21T13:16:31.369Z,32.5
2017-07-21T13:17:38.212Z,32.7
2017-07-21T13:18:45.706Z,32.6
2017-07-21T13:19:53.200Z,32.6
2017-07-21T13:21:00.958Z,32.5
2017-07-21T13:22:08.447Z,32.1
2017-07-21T13:23:16.762Z,31.9
2017-07-21T13:24:24.257Z,31.7
2017-07-21T13:25:31.088Z,31.5
2017-07-21T13:26:38.688Z,31.4
2017-07-21T13:27:45.868Z,31.2
2017-07-21T13:28:53.366Z,30.7
2017-07-21T13:30:00.861Z,30.1
2017-07-21T13:31:08.032Z,29.8
2017-07-21T13:32:15.524Z,29.8
2017-07-21T13:33:22.692Z,29.9
2017-07-21T13:34:29.856Z,30.2
2017-07-21T13:35:37.348Z,30.5
2017-07-21T13:36:44.834Z,31.1
2017-07-21T13:38:06.689Z,31.4
2017-07-21T13:39:14.185Z,31.6
2017-07-21T13:40:21.678Z,32
2017-07-21T13:41:29.208Z,31.9
2017-07-21T13:42:36.696Z,32
2017-07-21T13:43:44.440Z,32
2017-07-21T13:44:52.751Z,31.8
2017-07-21T13:46:00.247Z,32
2017-07-21T13:47:07.417Z,31.9
2017-07-21T13:48:14.915Z,31.7
2017-07-21T13:49:22.417Z,31.7
2017-07-21T13:50:29.911Z,31.8
2017-07-21T13:51:37.406Z,32.3
2017-07-21T13:52:44.912Z,33
2017-07-21T13:53:52.413Z,33.5
2017-07-21T13:55:00.208Z,33.7
2017-07-21T13:56:07.382Z,33.5
2017-07-21T13:57:14.889Z,32.9
2017-07-21T13:58:22.377Z,32.7
2017-07-21T13:59:29.544Z,32.4
2017-07-21T14:00:37.340Z,31.8
2017-07-21T14:01:44.832Z,31.2
2017-07-21T14:02:52.006Z,30.8
2017-07-21T14:03:59.507Z,30.6
2017-07-21T14:05:07.017Z,30.4
2017-07-21T14:06:14.483Z,30.4
2017-07-21T14:07:21.977Z,30.5
2017-07-21T14:08:29.464Z,30.5
2017-07-21T14:09:36.964Z,30.5
2017-07-21T14:10:44.452Z,30.6
2017-07-21T14:11:51.950Z,30.7
2017-07-21T14:12:59.448Z,30.8
2017-07-21T14:14:06.935Z,30.8
2017-07-21T14:15:14.108Z,30.8
2017-07-21T14:16:21.911Z,30.9
2017-07-21T14:17:29.402Z,31
2017-07-21T14:18:36.904Z,31
2017-07-21T14:19:44.107Z,30.8
2017-07-21T14:20:51.872Z,30.7
2017-07-21T14:21:59.686Z,30.6
2017-07-21T14:23:07.181Z,30.7
2017-07-21T14:24:14.677Z,30.8
2017-07-21T14:25:22.167Z,30.7
2017-07-21T14:26:29.678Z,30.6
2017-07-21T14:27:37.482Z,30.1
2017-07-21T14:28:44.973Z,29.7
2017-07-21T14:29:52.467Z,29.5
2017-07-21T14:31:00.773Z,29.5
2017-07-21T14:32:08.268Z,29.6
2017-07-21T14:33:15.735Z,29.8
2017-07-21T14:34:22.905Z,29.8
2017-07-21T14:35:30.075Z,29.9
2017-07-21T14:36:37.565Z,30
2017-07-21T14:37:45.068Z,29.8
2017-07-21T14:38:52.231Z,29.6
2017-07-21T14:39:59.394Z,29.6
2017-07-21T14:41:06.891Z,29.7
2017-07-21T14:42:14.382Z,29.9
2017-07-21T14:43:22.177Z,30
2017-07-21T14:44:29.020Z,30
2017-07-21T14:45:36.193Z,30.1
2017-07-21T14:46:43.349Z,29.6
2017-07-21T14:47:50.846Z,29.3
2017-07-21T14:48:58.638Z,29.3
2017-07-21T14:50:06.150Z,29.4
2017-07-21T14:51:13.656Z,29.5
2017-07-21T14:52:21.151Z,29.8
2017-07-21T14:53:28.306Z,30
2017-07-21T14:54:36.102Z,30.5
2017-07-21T14:55:43.598Z,31.2
2017-07-21T14:56:51.092Z,31.8
2017-07-21T14:57:58.586Z,32.2
2017-07-21T14:59:06.079Z,32.5
2017-07-21T15:00:13.877Z,32.8
2017-07-21T15:01:21.365Z,32.9
2017-07-21T15:02:28.854Z,33